sensor_id;sensor_type;location;lat;lon;timestamp;temperature;humidity
67249;SHT31;54162;54.300;18.592;2022-08-19T00:00:06;21.93;88.40
67249;SHT31;54162;54.300;18.592;2022-08-19T00:02:33;21.79;88.64
67249;SHT31;54162;54.300;18.592;2022-08-19T00:04:59;21.76;89.06
67249;SHT31;54162;54.300;18.592;2022-08-19T00:07:24;21.67;89.08
67249;SHT31;54162;54.300;18.592;2022-08-19T00:09:50;21.66;89.19
67249;SHT31;54162;54.300;18.592;2022-08-19T00:12:15;21.63;89.47
67249;SHT31;54162;54.300;18.592;2022-08-19T00:14:41;21.60;89.48
67249;SHT31;54162;54.300;18.592;2022-08-19T00:17:08;21.62;89.48
67249;SHT31;54162;54.300;18.592;2022-08-19T00:19:35;21.38;90.67
67249;SHT31;54162;54.300;18.592;2022-08-19T00:22:01;21.24;90.89
67249;SHT31;54162;54.300;18.592;2022-08-19T00:24:28;21.07;91.78
67249;SHT31;54162;54.300;18.592;2022-08-19T00:26:55;21.01;92.15
67249;SHT31;54162;54.300;18.592;2022-08-19T00:29:22;20.95;92.30
67249;SHT31;54162;54.300;18.592;2022-08-19T00:31:49;20.92;92.02
67249;SHT31;54162;54.300;18.592;2022-08-19T00:34:15;21.02;92.00
67249;SHT31;54162;54.300;18.592;2022-08-19T00:36:42;21.04;91.81
67249;SHT31;54162;54.300;18.592;2022-08-19T00:39:08;21.05;91.79
67249;SHT31;54162;54.300;18.592;2022-08-19T00:41:34;21.02;91.85
67249;SHT31;54162;54.300;18.592;2022-08-19T00:44:10;21.04;91.59
67249;SHT31;54162;54.300;18.592;2022-08-19T00:46:38;21.00;91.70
67249;SHT31;54162;54.300;18.592;2022-08-19T00:49:31;20.91;91.81
67249;SHT31;54162;54.300;18.592;2022-08-19T00:52:11;20.87;91.81
67249;SHT31;54162;54.300;18.592;2022-08-19T00:54:38;20.87;91.94
67249;SHT31;54162;54.300;18.592;2022-08-19T00:57:07;20.90;91.76
67249;SHT31;54162;54.300;18.592;2022-08-19T00:59:36;20.92;91.52
67249;SHT31;54162;54.300;18.592;2022-08-19T01:02:04;20.88;91.67
67249;SHT31;54162;54.300;18.592;2022-08-19T01:04:30;20.80;91.80
67249;SHT31;54162;54.300;18.592;2022-08-19T01:06:56;20.71;92.07
67249;SHT31;54162;54.300;18.592;2022-08-19T01:09:22;20.73;92.04
67249;SHT31;54162;54.300;18.592;2022-08-19T01:11:48;20.70;92.13
67249;SHT31;54162;54.300;18.592;2022-08-19T01:14:14;20.62;92.21
67249;SHT31;54162;54.300;18.592;2022-08-19T01:16:41;20.62;92.36
67249;SHT31;54162;54.300;18.592;2022-08-19T01:19:27;20.57;92.12
67249;SHT31;54162;54.300;18.592;2022-08-19T01:22:08;20.63;92.13
67249;SHT31;54162;54.300;18.592;2022-08-19T01:24:36;20.67;92.04
67249;SHT31;54162;54.300;18.592;2022-08-19T01:27:05;20.67;92.08
67249;SHT31;54162;54.300;18.592;2022-08-19T01:29:31;20.69;92.00
67249;SHT31;54162;54.300;18.592;2022-08-19T01:31:58;20.69;92.16
67249;SHT31;54162;54.300;18.592;2022-08-19T01:34:23;20.60;92.38
67249;SHT31;54162;54.300;18.592;2022-08-19T01:36:49;20.53;92.56
67249;SHT31;54162;54.300;18.592;2022-08-19T01:39:19;20.49;92.64
67249;SHT31;54162;54.300;18.592;2022-08-19T01:41:46;20.52;92.70
67249;SHT31;54162;54.300;18.592;2022-08-19T01:44:12;20.59;92.63
67249;SHT31;54162;54.300;18.592;2022-08-19T01:46:37;20.60;92.69
67249;SHT31;54162;54.300;18.592;2022-08-19T01:49:04;20.44;92.50
67249;SHT31;54162;54.300;18.592;2022-08-19T01:51:31;20.36;92.86
67249;SHT31;54162;54.300;18.592;2022-08-19T01:53:57;20.28;92.79
67249;SHT31;54162;54.300;18.592;2022-08-19T01:56:24;20.16;93.09
67249;SHT31;54162;54.300;18.592;2022-08-19T01:58:58;20.22;93.40
67249;SHT31;54162;54.300;18.592;2022-08-19T02:01:25;20.28;93.35
67249;SHT31;54162;54.300;18.592;2022-08-19T02:03:51;20.26;93.19
67249;SHT31;54162;54.300;18.592;2022-08-19T02:06:19;20.36;93.23
67249;SHT31;54162;54.300;18.592;2022-08-19T02:08:45;20.40;93.10
67249;SHT31;54162;54.300;18.592;2022-08-19T02:11:22;20.49;92.88
67249;SHT31;54162;54.300;18.592;2022-08-19T02:13:52;20.76;91.50
67249;SHT31;54162;54.300;18.592;2022-08-19T02:16:19;20.69;91.99
67249;SHT31;54162;54.300;18.592;2022-08-19T02:18:46;20.67;92.05
67249;SHT31;54162;54.300;18.592;2022-08-19T02:21:17;20.74;91.93
67249;SHT31;54162;54.300;18.592;2022-08-19T02:23:43;20.83;91.48
67249;SHT31;54162;54.300;18.592;2022-08-19T02:26:09;20.95;90.88
67249;SHT31;54162;54.300;18.592;2022-08-19T02:28:35;21.10;89.77
67249;SHT31;54162;54.300;18.592;2022-08-19T02:31:02;21.15;89.48
67249;SHT31;54162;54.300;18.592;2022-08-19T02:33:29;21.41;88.15
67249;SHT31;54162;54.300;18.592;2022-08-19T02:35:54;21.46;87.98
67249;SHT31;54162;54.300;18.592;2022-08-19T02:38:20;21.38;88.31
67249;SHT31;54162;54.300;18.592;2022-08-19T02:41:00;21.53;87.31
67249;SHT31;54162;54.300;18.592;2022-08-19T02:43:28;21.56;87.06
67249;SHT31;54162;54.300;18.592;2022-08-19T02:45:53;21.50;87.29
67249;SHT31;54162;54.300;18.592;2022-08-19T02:48:20;21.49;87.22
67249;SHT31;54162;54.300;18.592;2022-08-19T02:50:47;21.45;87.65
67249;SHT31;54162;54.300;18.592;2022-08-19T02:53:13;21.42;87.91
67249;SHT31;54162;54.300;18.592;2022-08-19T02:55:44;21.45;87.75
67249;SHT31;54162;54.300;18.592;2022-08-19T02:58:10;21.43;87.80
67249;SHT31;54162;54.300;18.592;2022-08-19T03:00:36;21.46;87.86
67249;SHT31;54162;54.300;18.592;2022-08-19T03:03:01;21.45;87.81
67249;SHT31;54162;54.300;18.592;2022-08-19T03:05:27;21.52;87.45
67249;SHT31;54162;54.300;18.592;2022-08-19T03:07:52;21.48;87.22
67249;SHT31;54162;54.300;18.592;2022-08-19T03:10:18;21.53;87.02
67249;SHT31;54162;54.300;18.592;2022-08-19T03:12:44;21.59;86.68
67249;SHT31;54162;54.300;18.592;2022-08-19T03:15:11;21.85;85.60
67249;SHT31;54162;54.300;18.592;2022-08-19T03:17:37;21.93;85.26
67249;SHT31;54162;54.300;18.592;2022-08-19T03:20:03;21.82;85.58
67249;SHT31;54162;54.300;18.592;2022-08-19T03:22:29;21.67;85.95
67249;SHT31;54162;54.300;18.592;2022-08-19T03:24:55;21.52;86.59
67249;SHT31;54162;54.300;18.592;2022-08-19T03:27:21;21.34;87.24
67249;SHT31;54162;54.300;18.592;2022-08-19T03:29:46;21.24;87.79
67249;SHT31;54162;54.300;18.592;2022-08-19T03:32:12;21.25;88.43
67249;SHT31;54162;54.300;18.592;2022-08-19T03:34:38;21.15;88.82
67249;SHT31;54162;54.300;18.592;2022-08-19T03:37:09;21.14;89.06
67249;SHT31;54162;54.300;18.592;2022-08-19T03:39:36;21.10;89.20
67249;SHT31;54162;54.300;18.592;2022-08-19T03:42:03;20.97;89.59
67249;SHT31;54162;54.300;18.592;2022-08-19T03:44:29;20.88;90.09
67249;SHT31;54162;54.300;18.592;2022-08-19T03:46:57;20.87;90.40
67249;SHT31;54162;54.300;18.592;2022-08-19T03:49:25;20.88;90.64
67249;SHT31;54162;54.300;18.592;2022-08-19T03:51:52;20.90;90.84
67249;SHT31;54162;54.300;18.592;2022-08-19T03:54:21;21.02;90.53
67249;SHT31;54162;54.300;18.592;2022-08-19T03:56:52;21.15;90.25
67249;SHT31;54162;54.300;18.592;2022-08-19T03:59:25;21.28;89.91
67249;SHT31;54162;54.300;18.592;2022-08-19T04:01:53;21.46;88.91
67249;SHT31;54162;54.300;18.592;2022-08-19T04:04:19;21.62;88.34
67249;SHT31;54162;54.300;18.592;2022-08-19T04:06:45;21.82;87.60
67249;SHT31;54162;54.300;18.592;2022-08-19T04:09:12;21.94;87.40
67249;SHT31;54162;54.300;18.592;2022-08-19T04:11:40;21.98;86.94
67249;SHT31;54162;54.300;18.592;2022-08-19T04:14:08;22.14;86.63
67249;SHT31;54162;54.300;18.592;2022-08-19T04:16:34;22.13;86.65
67249;SHT31;54162;54.300;18.592;2022-08-19T04:19:02;22.17;86.53
67249;SHT31;54162;54.300;18.592;2022-08-19T04:21:28;22.28;86.12
67249;SHT31;54162;54.300;18.592;2022-08-19T04:23:55;22.62;85.48
67249;SHT31;54162;54.300;18.592;2022-08-19T04:26:24;22.96;84.78
67249;SHT31;54162;54.300;18.592;2022-08-19T04:28:49;23.24;83.69
67249;SHT31;54162;54.300;18.592;2022-08-19T04:31:21;23.44;83.74
67249;SHT31;54162;54.300;18.592;2022-08-19T04:33:47;23.51;81.87
67249;SHT31;54162;54.300;18.592;2022-08-19T04:36:28;23.90;80.00
67249;SHT31;54162;54.300;18.592;2022-08-19T04:39:00;23.86;80.13
67249;SHT31;54162;54.300;18.592;2022-08-19T04:41:27;23.72;80.04
67249;SHT31;54162;54.300;18.592;2022-08-19T04:44:11;23.77;79.87
67249;SHT31;54162;54.300;18.592;2022-08-19T04:46:37;24.04;79.25
67249;SHT31;54162;54.300;18.592;2022-08-19T04:49:05;24.30;77.55
67249;SHT31;54162;54.300;18.592;2022-08-19T04:51:32;23.47;79.61
67249;SHT31;54162;54.300;18.592;2022-08-19T04:53:58;23.14;80.30
67249;SHT31;54162;54.300;18.592;2022-08-19T04:56:25;22.99;80.78
67249;SHT31;54162;54.300;18.592;2022-08-19T04:58:52;23.50;79.38
67249;SHT31;54162;54.300;18.592;2022-08-19T05:01:24;23.23;78.84
67249;SHT31;54162;54.300;18.592;2022-08-19T05:03:50;23.07;79.54
67249;SHT31;54162;54.300;18.592;2022-08-19T05:06:17;23.02;80.03
67249;SHT31;54162;54.300;18.592;2022-08-19T05:08:43;22.79;80.78
67249;SHT31;54162;54.300;18.592;2022-08-19T05:11:36;22.54;81.28
67249;SHT31;54162;54.300;18.592;2022-08-19T05:14:00;22.51;81.33
67249;SHT31;54162;54.300;18.592;2022-08-19T05:16:27;22.98;80.02
67249;SHT31;54162;54.300;18.592;2022-08-19T05:18:53;23.57;79.48
67249;SHT31;54162;54.300;18.592;2022-08-19T05:21:39;24.66;76.39
67249;SHT31;54162;54.300;18.592;2022-08-19T05:24:23;25.56;73.36
67249;SHT31;54162;54.300;18.592;2022-08-19T05:26:51;25.69;72.83
67249;SHT31;54162;54.300;18.592;2022-08-19T05:29:22;25.41;72.85
67249;SHT31;54162;54.300;18.592;2022-08-19T05:31:49;26.29;71.75
67249;SHT31;54162;54.300;18.592;2022-08-19T05:34:15;25.59;73.14
67249;SHT31;54162;54.300;18.592;2022-08-19T05:36:42;25.84;72.74
67249;SHT31;54162;54.300;18.592;2022-08-19T05:39:13;26.42;70.66
67249;SHT31;54162;54.300;18.592;2022-08-19T05:41:46;25.01;73.82
67249;SHT31;54162;54.300;18.592;2022-08-19T05:44:12;24.40;75.07
67249;SHT31;54162;54.300;18.592;2022-08-19T05:46:38;24.59;74.96
67249;SHT31;54162;54.300;18.592;2022-08-19T05:49:07;24.27;75.41
67249;SHT31;54162;54.300;18.592;2022-08-19T05:51:34;25.02;74.26
67249;SHT31;54162;54.300;18.592;2022-08-19T05:54:04;25.01;74.69
67249;SHT31;54162;54.300;18.592;2022-08-19T05:56:31;25.07;74.20
67249;SHT31;54162;54.300;18.592;2022-08-19T05:58:58;25.77;73.10
67249;SHT31;54162;54.300;18.592;2022-08-19T06:01:24;25.10;73.77
67249;SHT31;54162;54.300;18.592;2022-08-19T06:03:50;24.56;74.54
67249;SHT31;54162;54.300;18.592;2022-08-19T06:06:17;24.44;74.94
67249;SHT31;54162;54.300;18.592;2022-08-19T06:08:43;25.47;72.80
67249;SHT31;54162;54.300;18.592;2022-08-19T06:11:16;24.88;74.42
67249;SHT31;54162;54.300;18.592;2022-08-19T06:13:43;24.20;76.35
67249;SHT31;54162;54.300;18.592;2022-08-19T06:16:12;24.85;74.94
67249;SHT31;54162;54.300;18.592;2022-08-19T06:18:37;25.04;73.32
67249;SHT31;54162;54.300;18.592;2022-08-19T06:21:03;25.11;73.90
67249;SHT31;54162;54.300;18.592;2022-08-19T06:23:29;26.48;71.26
67249;SHT31;54162;54.300;18.592;2022-08-19T06:25:56;27.43;68.51
67249;SHT31;54162;54.300;18.592;2022-08-19T06:28:21;27.31;68.38
67249;SHT31;54162;54.300;18.592;2022-08-19T06:30:49;27.34;69.13
67249;SHT31;54162;54.300;18.592;2022-08-19T06:33:15;28.37;66.36
67249;SHT31;54162;54.300;18.592;2022-08-19T06:35:41;26.95;69.15
67249;SHT31;54162;54.300;18.592;2022-08-19T06:38:07;28.63;65.76
67249;SHT31;54162;54.300;18.592;2022-08-19T06:40:34;28.91;64.92
67249;SHT31;54162;54.300;18.592;2022-08-19T06:43:01;28.85;64.52
67249;SHT31;54162;54.300;18.592;2022-08-19T06:45:28;29.35;64.13
67249;SHT31;54162;54.300;18.592;2022-08-19T06:47:53;30.04;62.50
67249;SHT31;54162;54.300;18.592;2022-08-19T06:50:22;29.91;61.17
67249;SHT31;54162;54.300;18.592;2022-08-19T06:52:47;30.05;61.25
67249;SHT31;54162;54.300;18.592;2022-08-19T06:55:14;30.65;59.76
67249;SHT31;54162;54.300;18.592;2022-08-19T06:57:41;30.93;59.04
67249;SHT31;54162;54.300;18.592;2022-08-19T07:00:08;30.63;61.25
67249;SHT31;54162;54.300;18.592;2022-08-19T07:02:40;32.51;56.15
67249;SHT31;54162;54.300;18.592;2022-08-19T07:05:10;31.01;58.34
67249;SHT31;54162;54.300;18.592;2022-08-19T07:07:35;31.01;59.08
67249;SHT31;54162;54.300;18.592;2022-08-19T07:10:01;30.28;61.51
67249;SHT31;54162;54.300;18.592;2022-08-19T07:12:29;29.90;60.92
67249;SHT31;54162;54.300;18.592;2022-08-19T07:14:59;30.14;61.14
67249;SHT31;54162;54.300;18.592;2022-08-19T07:17:25;31.37;57.99
67249;SHT31;54162;54.300;18.592;2022-08-19T07:19:50;31.69;58.35
67249;SHT31;54162;54.300;18.592;2022-08-19T07:22:16;31.42;58.43
67249;SHT31;54162;54.300;18.592;2022-08-19T07:24:43;30.86;58.81
67249;SHT31;54162;54.300;18.592;2022-08-19T07:27:08;30.78;59.03
67249;SHT31;54162;54.300;18.592;2022-08-19T07:29:36;31.03;59.46
67249;SHT31;54162;54.300;18.592;2022-08-19T07:32:03;30.63;60.33
67249;SHT31;54162;54.300;18.592;2022-08-19T07:34:35;32.13;56.66
67249;SHT31;54162;54.300;18.592;2022-08-19T07:37:04;31.71;57.40
67249;SHT31;54162;54.300;18.592;2022-08-19T07:39:32;32.67;56.52
67249;SHT31;54162;54.300;18.592;2022-08-19T07:42:00;32.47;55.97
67249;SHT31;54162;54.300;18.592;2022-08-19T07:44:26;33.29;54.70
67249;SHT31;54162;54.300;18.592;2022-08-19T07:46:55;33.47;55.03
67249;SHT31;54162;54.300;18.592;2022-08-19T07:49:22;32.89;55.82
67249;SHT31;54162;54.300;18.592;2022-08-19T07:51:57;31.93;57.48
67249;SHT31;54162;54.300;18.592;2022-08-19T07:54:25;31.95;57.92
67249;SHT31;54162;54.300;18.592;2022-08-19T07:56:51;33.19;54.72
67249;SHT31;54162;54.300;18.592;2022-08-19T07:59:18;34.08;53.82
67249;SHT31;54162;54.300;18.592;2022-08-19T08:01:44;33.49;53.67
67249;SHT31;54162;54.300;18.592;2022-08-19T08:04:10;33.08;55.62
67249;SHT31;54162;54.300;18.592;2022-08-19T08:06:54;33.81;53.18
67249;SHT31;54162;54.300;18.592;2022-08-19T08:09:40;33.07;55.45
67249;SHT31;54162;54.300;18.592;2022-08-19T08:12:13;32.16;56.74
67249;SHT31;54162;54.300;18.592;2022-08-19T08:14:46;32.51;57.08
67249;SHT31;54162;54.300;18.592;2022-08-19T08:17:18;31.66;59.41
67249;SHT31;54162;54.300;18.592;2022-08-19T08:19:45;32.70;55.62
67249;SHT31;54162;54.300;18.592;2022-08-19T08:22:15;33.25;54.98
67249;SHT31;54162;54.300;18.592;2022-08-19T08:25:10;33.19;54.73
67249;SHT31;54162;54.300;18.592;2022-08-19T08:27:41;32.97;54.88
67249;SHT31;54162;54.300;18.592;2022-08-19T08:30:12;32.64;55.87
67249;SHT31;54162;54.300;18.592;2022-08-19T08:32:39;31.92;57.58
67249;SHT31;54162;54.300;18.592;2022-08-19T08:35:07;32.89;55.26
67249;SHT31;54162;54.300;18.592;2022-08-19T08:37:33;31.39;58.00
67249;SHT31;54162;54.300;18.592;2022-08-19T08:40:01;32.75;55.49
67249;SHT31;54162;54.300;18.592;2022-08-19T08:42:34;32.44;56.12
67249;SHT31;54162;54.300;18.592;2022-08-19T08:45:03;31.99;56.31
67249;SHT31;54162;54.300;18.592;2022-08-19T08:47:35;32.40;55.28
67249;SHT31;54162;54.300;18.592;2022-08-19T08:50:07;33.37;53.82
67249;SHT31;54162;54.300;18.592;2022-08-19T08:52:39;33.50;53.97
67249;SHT31;54162;54.300;18.592;2022-08-19T08:55:17;32.26;55.54
67249;SHT31;54162;54.300;18.592;2022-08-19T08:57:53;32.36;54.28
67249;SHT31;54162;54.300;18.592;2022-08-19T09:00:26;32.71;54.09
67249;SHT31;54162;54.300;18.592;2022-08-19T09:02:53;33.89;51.91
67249;SHT31;54162;54.300;18.592;2022-08-19T09:05:20;33.22;52.24
67249;SHT31;54162;54.300;18.592;2022-08-19T09:10:43;32.53;53.94
67249;SHT31;54162;54.300;18.592;2022-08-19T09:16:05;33.32;53.16
67249;SHT31;54162;54.300;18.592;2022-08-19T09:18:44;32.81;53.57
67249;SHT31;54162;54.300;18.592;2022-08-19T09:21:13;32.20;53.35
67249;SHT31;54162;54.300;18.592;2022-08-19T09:23:39;32.59;53.31
67249;SHT31;54162;54.300;18.592;2022-08-19T09:26:09;33.18;52.61
67249;SHT31;54162;54.300;18.592;2022-08-19T09:28:42;33.22;51.67
67249;SHT31;54162;54.300;18.592;2022-08-19T09:31:13;32.91;52.80
67249;SHT31;54162;54.300;18.592;2022-08-19T09:33:39;31.96;54.45
67249;SHT31;54162;54.300;18.592;2022-08-19T09:36:07;33.15;52.34
67249;SHT31;54162;54.300;18.592;2022-08-19T09:38:34;33.56;51.59
67249;SHT31;54162;54.300;18.592;2022-08-19T09:41:04;32.20;53.62
67249;SHT31;54162;54.300;18.592;2022-08-19T09:43:32;32.68;53.49
67249;SHT31;54162;54.300;18.592;2022-08-19T09:45:57;33.05;53.11
67249;SHT31;54162;54.300;18.592;2022-08-19T09:48:23;32.92;51.80
67249;SHT31;54162;54.300;18.592;2022-08-19T09:50:49;32.45;52.42
67249;SHT31;54162;54.300;18.592;2022-08-19T09:53:16;33.46;50.79
67249;SHT31;54162;54.300;18.592;2022-08-19T09:55:42;33.14;52.37
67249;SHT31;54162;54.300;18.592;2022-08-19T09:58:08;33.55;52.03
67249;SHT31;54162;54.300;18.592;2022-08-19T10:00:37;33.76;50.37
67249;SHT31;54162;54.300;18.592;2022-08-19T10:03:03;33.57;50.71
67249;SHT31;54162;54.300;18.592;2022-08-19T10:05:28;33.92;49.70
67249;SHT31;54162;54.300;18.592;2022-08-19T10:08:12;33.36;50.42
67249;SHT31;54162;54.300;18.592;2022-08-19T10:10:38;32.89;50.32
67249;SHT31;54162;54.300;18.592;2022-08-19T10:13:03;31.96;52.97
67249;SHT31;54162;54.300;18.592;2022-08-19T10:15:29;31.30;54.55
67249;SHT31;54162;54.300;18.592;2022-08-19T10:17:55;32.20;52.01
67249;SHT31;54162;54.300;18.592;2022-08-19T10:20:21;31.72;52.38
67249;SHT31;54162;54.300;18.592;2022-08-19T10:22:47;32.32;51.74
67249;SHT31;54162;54.300;18.592;2022-08-19T10:25:13;31.88;52.74
67249;SHT31;54162;54.300;18.592;2022-08-19T10:27:39;31.93;52.27
67249;SHT31;54162;54.300;18.592;2022-08-19T10:30:05;31.68;53.14
67249;SHT31;54162;54.300;18.592;2022-08-19T10:32:31;31.16;55.14
67249;SHT31;54162;54.300;18.592;2022-08-19T10:34:57;31.92;53.68
67249;SHT31;54162;54.300;18.592;2022-08-19T10:37:22;32.10;54.33
67249;SHT31;54162;54.300;18.592;2022-08-19T10:39:48;31.79;53.54
67249;SHT31;54162;54.300;18.592;2022-08-19T10:42:14;31.76;53.39
67249;SHT31;54162;54.300;18.592;2022-08-19T10:44:41;31.95;51.64
67249;SHT31;54162;54.300;18.592;2022-08-19T10:47:07;31.99;52.85
67249;SHT31;54162;54.300;18.592;2022-08-19T10:49:32;31.71;54.00
67249;SHT31;54162;54.300;18.592;2022-08-19T10:52:18;31.65;54.04
67249;SHT31;54162;54.300;18.592;2022-08-19T10:55:00;31.13;55.05
67249;SHT31;54162;54.300;18.592;2022-08-19T10:57:44;31.27;55.48
67249;SHT31;54162;54.300;18.592;2022-08-19T11:00:10;31.44;54.21
67249;SHT31;54162;54.300;18.592;2022-08-19T11:02:36;31.62;55.02
67249;SHT31;54162;54.300;18.592;2022-08-19T11:05:02;31.45;53.96
67249;SHT31;54162;54.300;18.592;2022-08-19T11:07:28;31.27;54.42
67249;SHT31;54162;54.300;18.592;2022-08-19T11:09:53;31.74;54.09
67249;SHT31;54162;54.300;18.592;2022-08-19T11:12:19;31.49;53.67
67249;SHT31;54162;54.300;18.592;2022-08-19T11:14:45;31.41;53.06
67249;SHT31;54162;54.300;18.592;2022-08-19T11:17:10;31.37;53.42
67249;SHT31;54162;54.300;18.592;2022-08-19T11:19:38;31.55;53.42
67249;SHT31;54162;54.300;18.592;2022-08-19T11:22:08;31.44;53.89
67249;SHT31;54162;54.300;18.592;2022-08-19T11:24:35;31.47;54.08
67249;SHT31;54162;54.300;18.592;2022-08-19T11:27:05;31.57;54.20
67249;SHT31;54162;54.300;18.592;2022-08-19T11:29:32;31.47;53.18
67249;SHT31;54162;54.300;18.592;2022-08-19T11:32:00;31.31;53.75
67249;SHT31;54162;54.300;18.592;2022-08-19T11:34:27;31.00;54.00
67249;SHT31;54162;54.300;18.592;2022-08-19T11:36:54;31.18;54.44
67249;SHT31;54162;54.300;18.592;2022-08-19T11:39:25;30.93;55.01
67249;SHT31;54162;54.300;18.592;2022-08-19T11:41:51;30.89;54.57
67249;SHT31;54162;54.300;18.592;2022-08-19T11:44:16;30.63;55.37
67249;SHT31;54162;54.300;18.592;2022-08-19T11:46:44;31.14;54.71
67249;SHT31;54162;54.300;18.592;2022-08-19T11:49:14;31.44;54.61
67249;SHT31;54162;54.300;18.592;2022-08-19T11:51:41;31.28;54.70
67249;SHT31;54162;54.300;18.592;2022-08-19T11:54:08;31.38;54.71
67249;SHT31;54162;54.300;18.592;2022-08-19T11:56:36;31.92;53.47
67249;SHT31;54162;54.300;18.592;2022-08-19T11:59:02;31.72;53.27
67249;SHT31;54162;54.300;18.592;2022-08-19T12:01:28;31.69;53.82
67249;SHT31;54162;54.300;18.592;2022-08-19T12:03:55;31.88;53.65
67249;SHT31;54162;54.300;18.592;2022-08-19T12:06:29;32.10;53.12
67249;SHT31;54162;54.300;18.592;2022-08-19T12:08:59;32.14;51.86
67249;SHT31;54162;54.300;18.592;2022-08-19T12:11:25;32.37;52.59
67249;SHT31;54162;54.300;18.592;2022-08-19T12:13:51;32.17;52.45
67249;SHT31;54162;54.300;18.592;2022-08-19T12:16:24;31.96;53.12
67249;SHT31;54162;54.300;18.592;2022-08-19T12:18:51;32.43;53.13
67249;SHT31;54162;54.300;18.592;2022-08-19T12:21:27;32.64;52.23
67249;SHT31;54162;54.300;18.592;2022-08-19T12:23:57;32.50;51.46
67249;SHT31;54162;54.300;18.592;2022-08-19T12:26:25;32.67;51.70
67249;SHT31;54162;54.300;18.592;2022-08-19T12:28:52;32.26;51.18
67249;SHT31;54162;54.300;18.592;2022-08-19T12:31:17;31.93;51.43
67249;SHT31;54162;54.300;18.592;2022-08-19T12:33:45;32.13;51.40
67249;SHT31;54162;54.300;18.592;2022-08-19T12:36:13;31.99;50.61
67249;SHT31;54162;54.300;18.592;2022-08-19T12:38:39;32.16;50.32
67249;SHT31;54162;54.300;18.592;2022-08-19T12:41:06;32.23;50.19
67249;SHT31;54162;54.300;18.592;2022-08-19T12:43:35;32.20;50.30
67249;SHT31;54162;54.300;18.592;2022-08-19T12:46:02;32.22;51.29
67249;SHT31;54162;54.300;18.592;2022-08-19T12:48:29;32.29;51.50
67249;SHT31;54162;54.300;18.592;2022-08-19T12:50:55;32.44;51.07
67249;SHT31;54162;54.300;18.592;2022-08-19T12:53:20;31.89;51.49
67249;SHT31;54162;54.300;18.592;2022-08-19T12:55:46;31.66;52.35
67249;SHT31;54162;54.300;18.592;2022-08-19T12:58:11;31.83;52.17
67249;SHT31;54162;54.300;18.592;2022-08-19T13:00:39;32.32;51.78
67249;SHT31;54162;54.300;18.592;2022-08-19T13:03:05;32.08;52.09
67249;SHT31;54162;54.300;18.592;2022-08-19T13:05:32;32.19;51.90
67249;SHT31;54162;54.300;18.592;2022-08-19T13:08:00;32.14;51.08
67249;SHT31;54162;54.300;18.592;2022-08-19T13:10:32;32.37;51.68
67249;SHT31;54162;54.300;18.592;2022-08-19T13:13:07;32.20;51.30
67249;SHT31;54162;54.300;18.592;2022-08-19T13:15:36;32.14;51.41
67249;SHT31;54162;54.300;18.592;2022-08-19T13:18:02;32.20;51.45
67249;SHT31;54162;54.300;18.592;2022-08-19T13:20:28;31.99;51.78
67249;SHT31;54162;54.300;18.592;2022-08-19T13:22:54;32.05;51.94
67249;SHT31;54162;54.300;18.592;2022-08-19T13:25:20;32.34;50.73
67249;SHT31;54162;54.300;18.592;2022-08-19T13:27:47;32.37;50.83
67249;SHT31;54162;54.300;18.592;2022-08-19T13:30:14;32.49;50.75
67249;SHT31;54162;54.300;18.592;2022-08-19T13:32:59;32.65;50.61
67249;SHT31;54162;54.300;18.592;2022-08-19T13:35:39;32.65;50.16
67249;SHT31;54162;54.300;18.592;2022-08-19T13:38:05;32.61;50.45
67249;SHT31;54162;54.300;18.592;2022-08-19T13:40:32;32.51;50.81
67249;SHT31;54162;54.300;18.592;2022-08-19T13:42:59;32.47;50.80
67249;SHT31;54162;54.300;18.592;2022-08-19T13:45:27;32.39;50.58
67249;SHT31;54162;54.300;18.592;2022-08-19T13:47:54;32.64;51.11
67249;SHT31;54162;54.300;18.592;2022-08-19T13:50:27;32.33;50.63
67249;SHT31;54162;54.300;18.592;2022-08-19T13:52:54;32.19;50.24
67249;SHT31;54162;54.300;18.592;2022-08-19T13:55:20;31.95;51.21
67249;SHT31;54162;54.300;18.592;2022-08-19T13:57:50;31.89;51.20
67249;SHT31;54162;54.300;18.592;2022-08-19T14:00:18;32.05;51.32
67249;SHT31;54162;54.300;18.592;2022-08-19T14:02:45;32.13;50.88
67249;SHT31;54162;54.300;18.592;2022-08-19T14:05:14;32.08;51.06
67249;SHT31;54162;54.300;18.592;2022-08-19T14:07:40;32.32;51.57
67249;SHT31;54162;54.300;18.592;2022-08-19T14:10:08;32.23;51.55
67249;SHT31;54162;54.300;18.592;2022-08-19T14:12:34;32.24;51.76
67249;SHT31;54162;54.300;18.592;2022-08-19T14:15:00;32.19;51.66
67249;SHT31;54162;54.300;18.592;2022-08-19T14:17:27;32.19;51.59
67249;SHT31;54162;54.300;18.592;2022-08-19T14:19:57;32.06;51.48
67249;SHT31;54162;54.300;18.592;2022-08-19T14:22:23;32.14;51.76
67249;SHT31;54162;54.300;18.592;2022-08-19T14:24:49;32.23;51.70
67249;SHT31;54162;54.300;18.592;2022-08-19T14:27:15;32.16;52.23
67249;SHT31;54162;54.300;18.592;2022-08-19T14:29:40;32.10;52.07
67249;SHT31;54162;54.300;18.592;2022-08-19T14:32:06;31.92;52.04
67249;SHT31;54162;54.300;18.592;2022-08-19T14:34:31;31.88;51.77
67249;SHT31;54162;54.300;18.592;2022-08-19T14:36:59;31.78;52.52
67249;SHT31;54162;54.300;18.592;2022-08-19T14:39:25;31.71;52.26
67249;SHT31;54162;54.300;18.592;2022-08-19T14:41:51;31.82;53.17
67249;SHT31;54162;54.300;18.592;2022-08-19T14:44:16;31.78;52.87
67249;SHT31;54162;54.300;18.592;2022-08-19T14:46:42;31.79;52.78
67249;SHT31;54162;54.300;18.592;2022-08-19T14:49:09;31.74;52.88
67249;SHT31;54162;54.300;18.592;2022-08-19T14:51:34;31.71;52.98
67249;SHT31;54162;54.300;18.592;2022-08-19T14:54:01;31.72;53.00
67249;SHT31;54162;54.300;18.592;2022-08-19T14:56:28;31.75;53.44
67249;SHT31;54162;54.300;18.592;2022-08-19T14:58:55;31.79;53.56
67249;SHT31;54162;54.300;18.592;2022-08-19T15:01:24;31.75;53.10
67249;SHT31;54162;54.300;18.592;2022-08-19T15:03:50;31.61;53.50
67249;SHT31;54162;54.300;18.592;2022-08-19T15:06:18;31.52;53.78
67249;SHT31;54162;54.300;18.592;2022-08-19T15:08:44;31.51;54.36
67249;SHT31;54162;54.300;18.592;2022-08-19T15:11:16;31.42;53.99
67249;SHT31;54162;54.300;18.592;2022-08-19T15:13:43;31.45;54.32
67249;SHT31;54162;54.300;18.592;2022-08-19T15:16:10;31.39;54.81
67249;SHT31;54162;54.300;18.592;2022-08-19T15:18:36;31.37;54.61
67249;SHT31;54162;54.300;18.592;2022-08-19T15:21:03;31.35;54.93
67249;SHT31;54162;54.300;18.592;2022-08-19T15:23:29;31.33;54.90
67249;SHT31;54162;54.300;18.592;2022-08-19T15:25:55;31.26;55.01